sensor_id;sensor_type;location;lat;lon;timestamp;pressure;altitude;pressure_sealevel;temperature;humidity
20156;BME280;10238;49.556;10.956;2023-04-21T00:01:24;97981.00;;;8.41;100.00
20156;BME280;10238;49.556;10.956;2023-04-21T00:04:12;97980.16;;;8.41;100.00
20156;BME280;10238;49.556;10.956;2023-04-21T00:07:02;97975.84;;;8.40;100.00
20156;BME280;10238;49.556;10.956;2023-04-21T00:09:50;97974.06;;;8.40;100.00
20156;BME280;10238;49.556;10.956;2023-04-21T00:12:38;97977.66;;;8.39;100.00
20156;BME280;10238;49.556;10.956;2023-04-21T00:15:26;97973.22;;;8.40;100.00
20156;BME280;10238;49.556;10.956;2023-04-21T00:18:14;97972.06;;;8.42;100.00
20156;BME280;10238;49.556;10.956;2023-04-21T00:21:01;97966.25;;;8.39;100.00
20156;BME280;10238;49.556;10.956;2023-04-21T00:23:50;97961.78;;;8.39;100.00
20156;BME280;10238;49.556;10.956;2023-04-21T00:26:38;97964.41;;;8.39;100.00
20156;BME280;10238;49.556;10.956;2023-04-21T00:29:25;97963.63;;;8.39;100.00
20156;BME280;10238;49.556;10.956;2023-04-21T00:32:13;97954.13;;;8.36;100.00
20156;BME280;10238;49.556;10.956;2023-04-21T00:35:01;97951.78;;;8.33;100.00
20156;BME280;10238;49.556;10.956;2023-04-21T00:37:49;97946.63;;;8.32;100.00
20156;BME280;10238;49.556;10.956;2023-04-21T00:40:37;97942.47;;;8.29;100.00
20156;BME280;10238;49.556;10.956;2023-04-21T00:43:25;97942.63;;;8.28;100.00
20156;BME280;10238;49.556;10.956;2023-04-21T00:46:13;97929.69;;;8.25;100.00
20156;BME280;10238;49.556;10.956;2023-04-21T00:49:04;97930.94;;;8.21;100.00
20156;BME280;10238;49.556;10.956;2023-04-21T00:51:52;97941.84;;;8.18;100.00
20156;BME280;10238;49.556;10.956;2023-04-21T00:54:40;97936.00;;;8.14;100.00
20156;BME280;10238;49.556;10.956;2023-04-21T00:57:31;97930.34;;;8.09;100.00
20156;BME280;10238;49.556;10.956;2023-04-21T01:00:19;97938.72;;;8.05;100.00
20156;BME280;10238;49.556;10.956;2023-04-21T01:03:06;97940.31;;;7.98;100.00
20156;BME280;10238;49.556;10.956;2023-04-21T01:05:57;97934.63;;;7.93;100.00
20156;BME280;10238;49.556;10.956;2023-04-21T01:08:45;97939.38;;;7.89;100.00
20156;BME280;10238;49.556;10.956;2023-04-21T01:11:33;97939.81;;;7.85;100.00
20156;BME280;10238;49.556;10.956;2023-04-21T01:14:21;97933.16;;;7.81;100.00
20156;BME280;10238;49.556;10.956;2023-04-21T01:17:09;97935.41;;;7.76;100.00
20156;BME280;10238;49.556;10.956;2023-04-21T01:19:58;97933.22;;;7.71;100.00
20156;BME280;10238;49.556;10.956;2023-04-21T01:22:49;97943.25;;;7.68;100.00
20156;BME280;10238;49.556;10.956;2023-04-21T01:25:37;97938.38;;;7.63;100.00
20156;BME280;10238;49.556;10.956;2023-04-21T01:28:25;97940.50;;;7.60;100.00
20156;BME280;10238;49.556;10.956;2023-04-21T01:31:13;97943.72;;;7.54;100.00
20156;BME280;10238;49.556;10.956;2023-04-21T01:34:03;97950.31;;;7.50;100.00
20156;BME280;10238;49.556;10.956;2023-04-21T01:36:51;97947.94;;;7.47;100.00
20156;BME280;10238;49.556;10.956;2023-04-21T01:39:41;97954.50;;;7.43;100.00
20156;BME280;10238;49.556;10.956;2023-04-21T01:42:29;97964.53;;;7.39;100.00
20156;BME280;10238;49.556;10.956;2023-04-21T01:45:16;97961.31;;;7.36;100.00
20156;BME280;10238;49.556;10.956;2023-04-21T01:48:04;97959.97;;;7.32;100.00
20156;BME280;10238;49.556;10.956;2023-04-21T01:50:52;97971.66;;;7.29;100.00
20156;BME280;10238;49.556;10.956;2023-04-21T01:53:40;97961.22;;;7.28;100.00
20156;BME280;10238;49.556;10.956;2023-04-21T01:56:30;97964.84;;;7.27;100.00
20156;BME280;10238;49.556;10.956;2023-04-21T01:59:17;97966.81;;;7.25;100.00
20156;BME280;10238;49.556;10.956;2023-04-21T02:02:05;97967.94;;;7.22;100.00
20156;BME280;10238;49.556;10.956;2023-04-21T02:04:53;97965.44;;;7.21;100.00
20156;BME280;10238;49.556;10.956;2023-04-21T02:07:41;97966.25;;;7.21;100.00
20156;BME280;10238;49.556;10.956;2023-04-21T02:10:29;97967.53;;;7.17;100.00
20156;BME280;10238;49.556;10.956;2023-04-21T02:13:17;97960.00;;;7.13;100.00
20156;BME280;10238;49.556;10.956;2023-04-21T02:16:06;97961.28;;;7.09;100.00
20156;BME280;10238;49.556;10.956;2023-04-21T02:18:59;97955.00;;;7.10;100.00
20156;BME280;10238;49.556;10.956;2023-04-21T02:21:47;97954.34;;;7.08;100.00
20156;BME280;10238;49.556;10.956;2023-04-21T02:24:35;97954.47;;;7.06;100.00
20156;BME280;10238;49.556;10.956;2023-04-21T02:27:22;97949.63;;;7.02;100.00
20156;BME280;10238;49.556;10.956;2023-04-21T02:30:11;97958.13;;;6.96;100.00
20156;BME280;10238;49.556;10.956;2023-04-21T02:32:59;97957.69;;;6.91;100.00
20156;BME280;10238;49.556;10.956;2023-04-21T02:35:47;97959.09;;;6.85;100.00
20156;BME280;10238;49.556;10.956;2023-04-21T02:38:35;97955.09;;;6.81;100.00
20156;BME280;10238;49.556;10.956;2023-04-21T02:41:22;97946.72;;;6.76;100.00
20156;BME280;10238;49.556;10.956;2023-04-21T02:44:10;97948.28;;;6.69;100.00
20156;BME280;10238;49.556;10.956;2023-04-21T02:46:59;97954.97;;;6.63;100.00
20156;BME280;10238;49.556;10.956;2023-04-21T02:49:48;97945.91;;;6.56;100.00
20156;BME280;10238;49.556;10.956;2023-04-21T02:52:36;97947.88;;;6.54;100.00
20156;BME280;10238;49.556;10.956;2023-04-21T02:55:24;97945.50;;;6.51;100.00
20156;BME280;10238;49.556;10.956;2023-04-21T02:58:12;97944.13;;;6.47;100.00
20156;BME280;10238;49.556;10.956;2023-04-21T03:01:00;97943.69;;;6.42;100.00
20156;BME280;10238;49.556;10.956;2023-04-21T03:03:50;97942.44;;;6.37;100.00
20156;BME280;10238;49.556;10.956;2023-04-21T03:06:38;97947.44;;;6.30;100.00
20156;BME280;10238;49.556;10.956;2023-04-21T03:09:25;97949.53;;;6.27;100.00
20156;BME280;10238;49.556;10.956;2023-04-21T03:12:13;97948.25;;;6.21;100.00
20156;BME280;10238;49.556;10.956;2023-04-21T03:15:01;97944.22;;;6.17;100.00
20156;BME280;10238;49.556;10.956;2023-04-21T03:17:51;97952.44;;;6.14;100.00
20156;BME280;10238;49.556;10.956;2023-04-21T03:20:40;97947.41;;;6.11;100.00
20156;BME280;10238;49.556;10.956;2023-04-21T03:23:28;97953.94;;;6.07;100.00
20156;BME280;10238;49.556;10.956;2023-04-21T03:26:15;97957.72;;;6.05;100.00
20156;BME280;10238;49.556;10.956;2023-04-21T03:29:03;97955.47;;;6.00;100.00
20156;BME280;10238;49.556;10.956;2023-04-21T03:31:53;97957.13;;;6.01;100.00
20156;BME280;10238;49.556;10.956;2023-04-21T03:34:40;97960.75;;;6.00;100.00
20156;BME280;10238;49.556;10.956;2023-04-21T03:37:29;97959.38;;;5.96;100.00
20156;BME280;10238;49.556;10.956;2023-04-21T03:40:17;97953.38;;;5.94;100.00
20156;BME280;10238;49.556;10.956;2023-04-21T03:43:05;97955.44;;;5.91;100.00
20156;BME280;10238;49.556;10.956;2023-04-21T03:45:52;97954.88;;;5.87;100.00
20156;BME280;10238;49.556;10.956;2023-04-21T03:48:40;97951.69;;;5.84;100.00
20156;BME280;10238;49.556;10.956;2023-04-21T03:51:27;97957.31;;;5.79;100.00
20156;BME280;10238;49.556;10.956;2023-04-21T03:54:16;97959.53;;;5.74;100.00
20156;BME280;10238;49.556;10.956;2023-04-21T03:57:03;97961.59;;;5.71;100.00
20156;BME280;10238;49.556;10.956;2023-04-21T03:59:51;97958.38;;;5.67;100.00
20156;BME280;10238;49.556;10.956;2023-04-21T04:02:38;97962.00;;;5.66;100.00
20156;BME280;10238;49.556;10.956;2023-04-21T04:05:27;97965.88;;;5.62;100.00
20156;BME280;10238;49.556;10.956;2023-04-21T04:08:14;97960.28;;;5.56;100.00
20156;BME280;10238;49.556;10.956;2023-04-21T04:11:03;97968.34;;;5.54;100.00
20156;BME280;10238;49.556;10.956;2023-04-21T04:13:51;97957.78;;;5.54;100.00
20156;BME280;10238;49.556;10.956;2023-04-21T04:16:38;97960.69;;;5.51;100.00
20156;BME280;10238;49.556;10.956;2023-04-21T04:19:29;97959.47;;;5.55;100.00
20156;BME280;10238;49.556;10.956;2023-04-21T04:22:17;97963.06;;;5.54;100.00
20156;BME280;10238;49.556;10.956;2023-04-21T04:25:05;97959.16;;;5.49;100.00
20156;BME280;10238;49.556;10.956;2023-04-21T04:27:56;97963.63;;;5.48;100.00
20156;BME280;10238;49.556;10.956;2023-04-21T04:30:44;97968.31;;;5.45;100.00
20156;BME280;10238;49.556;10.956;2023-04-21T04:33:31;97966.91;;;5.41;100.00
20156;BME280;10238;49.556;10.956;2023-04-21T04:36:19;97965.50;;;5.37;100.00
20156;BME280;10238;49.556;10.956;2023-04-21T04:39:06;97973.78;;;5.32;100.00
20156;BME280;10238;49.556;10.956;2023-04-21T04:41:55;97966.03;;;5.31;100.00
20156;BME280;10238;49.556;10.956;2023-04-21T04:44:44;97972.38;;;5.28;100.00
20156;BME280;10238;49.556;10.956;2023-04-21T04:47:32;97968.34;;;5.24;100.00
20156;BME280;10238;49.556;10.956;2023-04-21T04:50:20;97963.22;;;5.23;100.00
20156;BME280;10238;49.556;10.956;2023-04-21T04:53:08;97965.97;;;5.21;100.00
20156;BME280;10238;49.556;10.956;2023-04-21T04:55:55;97960.97;;;5.18;100.00
20156;BME280;10238;49.556;10.956;2023-04-21T04:58:43;97960.13;;;5.18;100.00
20156;BME280;10238;49.556;10.956;2023-04-21T05:01:34;97959.31;;;5.17;100.00
20156;BME280;10238;49.556;10.956;2023-04-21T05:04:24;97957.91;;;5.13;100.00
20156;BME280;10238;49.556;10.956;2023-04-21T05:07:13;97963.19;;;5.13;100.00
20156;BME280;10238;49.556;10.956;2023-04-21T05:10:00;97967.88;;;5.10;100.00
20156;BME280;10238;49.556;10.956;2023-04-21T05:12:49;97975.31;;;5.05;100.00
20156;BME280;10238;49.556;10.956;2023-04-21T05:15:36;97972.25;;;5.00;100.00
20156;BME280;10238;49.556;10.956;2023-04-21T05:18:25;97978.47;;;4.99;100.00
20156;BME280;10238;49.556;10.956;2023-04-21T05:21:13;97985.28;;;5.01;100.00
20156;BME280;10238;49.556;10.956;2023-04-21T05:24:01;97983.59;;;5.00;100.00
20156;BME280;10238;49.556;10.956;2023-04-21T05:26:48;97978.31;;;5.00;100.00
20156;BME280;10238;49.556;10.956;2023-04-21T05:29:36;97972.38;;;4.98;100.00
20156;BME280;10238;49.556;10.956;2023-04-21T05:32:24;97978.59;;;4.97;100.00
20156;BME280;10238;49.556;10.956;2023-04-21T05:35:13;97974.25;;;5.07;100.00
20156;BME280;10238;49.556;10.956;2023-04-21T05:38:00;97978.69;;;5.16;100.00
20156;BME280;10238;49.556;10.956;2023-04-21T05:40:53;97977.63;;;5.19;100.00
20156;BME280;10238;49.556;10.956;2023-04-21T05:43:41;97979.88;;;5.23;100.00
20156;BME280;10238;49.556;10.956;2023-04-21T05:46:29;97985.16;;;5.33;100.00
20156;BME280;10238;49.556;10.956;2023-04-21T05:49:17;97981.63;;;5.43;100.00
20156;BME280;10238;49.556;10.956;2023-04-21T05:52:08;97980.84;;;5.52;100.00
20156;BME280;10238;49.556;10.956;2023-04-21T05:54:57;97973.78;;;5.62;100.00
20156;BME280;10238;49.556;10.956;2023-04-21T05:57:45;97984.22;;;5.73;100.00
20156;BME280;10238;49.556;10.956;2023-04-21T06:00:33;97978.63;;;5.87;100.00
20156;BME280;10238;49.556;10.956;2023-04-21T06:03:20;97978.22;;;6.01;100.00
20156;BME280;10238;49.556;10.956;2023-04-21T06:06:08;97991.34;;;6.41;100.00
20156;BME280;10238;49.556;10.956;2023-04-21T06:08:58;97996.06;;;6.37;100.00
20156;BME280;10238;49.556;10.956;2023-04-21T06:11:46;98003.19;;;6.75;100.00
20156;BME280;10238;49.556;10.956;2023-04-21T06:14:33;98010.53;;;6.72;100.00
20156;BME280;10238;49.556;10.956;2023-04-21T06:17:21;98010.53;;;6.91;100.00
20156;BME280;10238;49.556;10.956;2023-04-21T06:20:11;98006.06;;;7.01;100.00
20156;BME280;10238;49.556;10.956;2023-04-21T06:22:58;98001.31;;;7.14;100.00
20156;BME280;10238;49.556;10.956;2023-04-21T06:25:58;98012.50;;;7.54;100.00
20156;BME280;10238;49.556;10.956;2023-04-21T06:28:49;98013.69;;;7.69;100.00
20156;BME280;10238;49.556;10.956;2023-04-21T06:31:37;98008.38;;;8.05;100.00
20156;BME280;10238;49.556;10.956;2023-04-21T06:34:24;98004.44;;;8.36;100.00
20156;BME280;10238;49.556;10.956;2023-04-21T06:37:12;98007.09;;;8.54;100.00
20156;BME280;10238;49.556;10.956;2023-04-21T06:39:59;98002.81;;;8.70;100.00
20156;BME280;10238;49.556;10.956;2023-04-21T06:42:48;98004.94;;;9.02;100.00
20156;BME280;10238;49.556;10.956;2023-04-21T06:45:36;97997.28;;;9.25;100.00
20156;BME280;10238;49.556;10.956;2023-04-21T06:48:23;97997.94;;;9.44;100.00
20156;BME280;10238;49.556;10.956;2023-04-21T06:51:12;97998.97;;;9.51;100.00
20156;BME280;10238;49.556;10.956;2023-04-21T06:54:00;97990.63;;;9.72;100.00
20156;BME280;10238;49.556;10.956;2023-04-21T06:56:48;97996.47;;;9.83;100.00
20156;BME280;10238;49.556;10.956;2023-04-21T06:59:38;97999.66;;;10.20;100.00
20156;BME280;10238;49.556;10.956;2023-04-21T07:02:25;97988.13;;;10.53;100.00
20156;BME280;10238;49.556;10.956;2023-04-21T07:05:14;97982.00;;;10.85;100.00
20156;BME280;10238;49.556;10.956;2023-04-21T07:08:02;97980.84;;;11.12;100.00
20156;BME280;10238;49.556;10.956;2023-04-21T07:10:49;97974.50;;;11.45;100.00
20156;BME280;10238;49.556;10.956;2023-04-21T07:13:37;97967.16;;;11.63;100.00
20156;BME280;10238;49.556;10.956;2023-04-21T07:16:26;97964.69;;;12.00;100.00
20156;BME280;10238;49.556;10.956;2023-04-21T07:19:13;97958.44;;;12.23;100.00
20156;BME280;10238;49.556;10.956;2023-04-21T07:22:00;97961.28;;;12.44;100.00
20156;BME280;10238;49.556;10.956;2023-04-21T07:24:48;97961.53;;;12.57;100.00
20156;BME280;10238;49.556;10.956;2023-04-21T07:27:37;97960.19;;;12.61;100.00
20156;BME280;10238;49.556;10.956;2023-04-21T07:30:25;97949.28;;;12.71;100.00
20156;BME280;10238;49.556;10.956;2023-04-21T07:33:15;97949.13;;;12.95;100.00
20156;BME280;10238;49.556;10.956;2023-04-21T07:36:03;97944.78;;;13.17;100.00
20156;BME280;10238;49.556;10.956;2023-04-21T07:38:51;97940.13;;;13.33;100.00
20156;BME280;10238;49.556;10.956;2023-04-21T07:41:39;97945.84;;;13.59;100.00
20156;BME280;10238;49.556;10.956;2023-04-21T07:44:27;97943.66;;;13.77;100.00
20156;BME280;10238;49.556;10.956;2023-04-21T07:47:15;97941.03;;;13.98;100.00
20156;BME280;10238;49.556;10.956;2023-04-21T07:50:06;97930.72;;;14.24;100.00
20156;BME280;10238;49.556;10.956;2023-04-21T07:52:54;97938.88;;;14.37;100.00
20156;BME280;10238;49.556;10.956;2023-04-21T07:55:41;97929.25;;;14.57;100.00
20156;BME280;10238;49.556;10.956;2023-04-21T07:58:29;97931.28;;;14.76;100.00
20156;BME280;10238;49.556;10.956;2023-04-21T08:01:16;97925.78;;;15.05;100.00
20156;BME280;10238;49.556;10.956;2023-04-21T08:04:05;97923.72;;;15.29;100.00
20156;BME280;10238;49.556;10.956;2023-04-21T08:06:54;97925.81;;;15.61;100.00
20156;BME280;10238;49.556;10.956;2023-04-21T08:09:43;97922.16;;;15.68;100.00
20156;BME280;10238;49.556;10.956;2023-04-21T08:12:31;97923.59;;;16.11;100.00
20156;BME280;10238;49.556;10.956;2023-04-21T08:15:41;97910.47;;;15.76;100.00
20156;BME280;10238;49.556;10.956;2023-04-21T08:18:35;97914.50;;;16.06;100.00
20156;BME280;10238;49.556;10.956;2023-04-21T08:21:23;97909.97;;;16.53;100.00
20156;BME280;10238;49.556;10.956;2023-04-21T08:24:12;97900.72;;;16.69;100.00
20156;BME280;10238;49.556;10.956;2023-04-21T08:27:00;97892.91;;;17.00;100.00
20156;BME280;10238;49.556;10.956;2023-04-21T08:29:49;97889.38;;;17.32;100.00
20156;BME280;10238;49.556;10.956;2023-04-21T08:32:37;97896.59;;;17.64;100.00
20156;BME280;10238;49.556;10.956;2023-04-21T08:35:26;97901.84;;;18.03;100.00
20156;BME280;10238;49.556;10.956;2023-04-21T08:38:13;97892.84;;;17.72;100.00
20156;BME280;10238;49.556;10.956;2023-04-21T08:41:03;97894.13;;;17.69;100.00
20156;BME280;10238;49.556;10.956;2023-04-21T08:43:51;97887.94;;;17.49;97.60
20156;BME280;10238;49.556;10.956;2023-04-21T08:46:39;97885.81;;;17.71;99.81
20156;BME280;10238;49.556;10.956;2023-04-21T08:49:30;97890.22;;;18.16;100.00
20156;BME280;10238;49.556;10.956;2023-04-21T08:52:19;97889.75;;;18.25;93.72
20156;BME280;10238;49.556;10.956;2023-04-21T08:55:08;97885.16;;;18.32;90.64
20156;BME280;10238;49.556;10.956;2023-04-21T08:58:03;97888.00;;;18.81;99.73
20156;BME280;10238;49.556;10.956;2023-04-21T09:00:52;97882.19;;;18.84;94.20
20156;BME280;10238;49.556;10.956;2023-04-21T09:03:40;97881.00;;;19.54;100.00
20156;BME280;10238;49.556;10.956;2023-04-21T09:06:40;97873.59;;;19.86;88.35
20156;BME280;10238;49.556;10.956;2023-04-21T09:09:29;97876.16;;;19.13;84.12
20156;BME280;10238;49.556;10.956;2023-04-21T09:12:17;97869.59;;;19.52;91.07
20156;BME280;10238;49.556;10.956;2023-04-21T09:15:11;97860.31;;;19.23;87.60
20156;BME280;10238;49.556;10.956;2023-04-21T09:18:04;97869.91;;;19.44;89.63
20156;BME280;10238;49.556;10.956;2023-04-21T09:21:07;97871.22;;;20.14;84.31
20156;BME280;10238;49.556;10.956;2023-04-21T09:23:55;97868.03;;;20.35;82.94
20156;BME280;10238;49.556;10.956;2023-04-21T09:26:42;97862.38;;;20.95;87.70
20156;BME280;10238;49.556;10.956;2023-04-21T09:29:30;97852.78;;;20.70;72.39
20156;BME280;10238;49.556;10.956;2023-04-21T09:32:19;97873.56;;;20.40;73.68
20156;BME280;10238;49.556;10.956;2023-04-21T09:35:09;97862.91;;;20.74;81.46
20156;BME280;10238;49.556;10.956;2023-04-21T09:37:56;97862.44;;;21.30;82.73
20156;BME280;10238;49.556;10.956;2023-04-21T09:40:44;97860.91;;;21.22;84.75
20156;BME280;10238;49.556;10.956;2023-04-21T09:43:33;97853.53;;;19.64;73.05
20156;BME280;10238;49.556;10.956;2023-04-21T09:46:22;97865.66;;;19.91;74.61
20156;BME280;10238;49.556;10.956;2023-04-21T09:49:16;97854.78;;;21.15;85.23
20156;BME280;10238;49.556;10.956;2023-04-21T09:52:05;97848.56;;;21.38;77.11
20156;BME280;10238;49.556;10.956;2023-04-21T09:55:12;97855.50;;;20.70;73.49
20156;BME280;10238;49.556;10.956;2023-04-21T09:58:01;97853.19;;;20.44;77.67
20156;BME280;10238;49.556;10.956;2023-04-21T10:00:52;97850.88;;;21.00;82.98
20156;BME280;10238;49.556;10.956;2023-04-21T10:03:43;97843.09;;;20.92;74.60
20156;BME280;10238;49.556;10.956;2023-04-21T10:06:33;97846.00;;;20.38;70.12
20156;BME280;10238;49.556;10.956;2023-04-21T10:09:24;97853.28;;;19.83;66.52
20156;BME280;10238;49.556;10.956;2023-04-21T10:12:15;97850.06;;;19.39;80.84
20156;BME280;10238;49.556;10.956;2023-04-21T10:15:05;97839.56;;;20.91;78.17
20156;BME280;10238;49.556;10.956;2023-04-21T10:18:16;97834.31;;;21.54;74.53
20156;BME280;10238;49.556;10.956;2023-04-21T10:21:09;97830.31;;;21.91;76.80
20156;BME280;10238;49.556;10.956;2023-04-21T10:23:58;97831.69;;;21.94;67.47
20156;BME280;10238;49.556;10.956;2023-04-21T10:26:45;97823.88;;;22.48;70.72
20156;BME280;10238;49.556;10.956;2023-04-21T10:29:33;97818.34;;;22.15;63.00
20156;BME280;10238;49.556;10.956;2023-04-21T10:32:38;97830.91;;;21.93;67.23
20156;BME280;10238;49.556;10.956;2023-04-21T10:36:00;97817.78;;;21.39;62.04
20156;BME280;10238;49.556;10.956;2023-04-21T10:38:58;97817.09;;;22.06;80.43
20156;BME280;10238;49.556;10.956;2023-04-21T10:41:48;97808.66;;;22.75;70.70
20156;BME280;10238;49.556;10.956;2023-04-21T10:44:41;97801.63;;;23.41;63.20
20156;BME280;10238;49.556;10.956;2023-04-21T10:47:34;97803.09;;;22.98;62.95
20156;BME280;10238;49.556;10.956;2023-04-21T10:50:28;97797.78;;;23.58;72.60
20156;BME280;10238;49.556;10.956;2023-04-21T10:53:17;97799.34;;;24.14;65.60
20156;BME280;10238;49.556;10.956;2023-04-21T10:56:06;97789.94;;;23.62;55.95
20156;BME280;10238;49.556;10.956;2023-04-21T10:58:54;97786.59;;;23.00;69.10
20156;BME280;10238;49.556;10.956;2023-04-21T11:01:43;97785.13;;;22.20;56.67
20156;BME280;10238;49.556;10.956;2023-04-21T11:04:31;97784.34;;;22.80;57.77
20156;BME280;10238;49.556;10.956;2023-04-21T11:07:21;97770.97;;;22.90;61.32
20156;BME280;10238;49.556;10.956;2023-04-21T11:10:10;97768.34;;;23.50;56.27
20156;BME280;10238;49.556;10.956;2023-04-21T11:12:59;97768.78;;;24.02;57.43
20156;BME280;10238;49.556;10.956;2023-04-21T11:16:02;97768.47;;;24.20;55.42
20156;BME280;10238;49.556;10.956;2023-04-21T11:18:51;97766.13;;;23.25;56.13
20156;BME280;10238;49.556;10.956;2023-04-21T11:21:39;97765.34;;;22.19;52.71
20156;BME280;10238;49.556;10.956;2023-04-21T11:24:26;97766.41;;;21.90;57.84
20156;BME280;10238;49.556;10.956;2023-04-21T11:27:14;97753.84;;;22.12;55.58
20156;BME280;10238;49.556;10.956;2023-04-21T11:30:08;97758.69;;;23.04;60.42
20156;BME280;10238;49.556;10.956;2023-04-21T11:32:56;97753.28;;;23.38;55.49
20156;BME280;10238;49.556;10.956;2023-04-21T11:35:43;97753.31;;;22.88;52.89
20156;BME280;10238;49.556;10.956;2023-04-21T11:38:40;97754.88;;;23.77;55.25
20156;BME280;10238;49.556;10.956;2023-04-21T11:41:27;97741.34;;;24.83;58.35
20156;BME280;10238;49.556;10.956;2023-04-21T11:44:32;97736.53;;;25.83;52.16
20156;BME280;10238;49.556;10.956;2023-04-21T11:47:23;97735.53;;;24.69;50.29
20156;BME280;10238;49.556;10.956;2023-04-21T11:50:11;97742.19;;;24.04;50.43
20156;BME280;10238;49.556;10.956;2023-04-21T11:53:16;97739.72;;;23.38;51.79
20156;BME280;10238;49.556;10.956;2023-04-21T11:56:05;97742.13;;;23.99;58.97
20156;BME280;10238;49.556;10.956;2023-04-21T11:58:52;97723.94;;;25.72;54.31
20156;BME280;10238;49.556;10.956;2023-04-21T12:01:44;97722.31;;;26.78;58.73
20156;BME280;10238;49.556;10.956;2023-04-21T12:04:34;97715.78;;;26.99;53.54
20156;BME280;10238;49.556;10.956;2023-04-21T12:07:22;97723.63;;;26.30;50.99
20156;BME280;10238;49.556;10.956;2023-04-21T12:10:11;97730.41;;;26.28;49.45
20156;BME280;10238;49.556;10.956;2023-04-21T12:12:59;97713.50;;;27.51;60.93
20156;BME280;10238;49.556;10.956;2023-04-21T12:15:48;97704.47;;;28.63;57.46
20156;BME280;10238;49.556;10.956;2023-04-21T12:18:38;97721.06;;;28.33;53.53
20156;BME280;10238;49.556;10.956;2023-04-21T12:21:28;97719.00;;;28.10;53.90
20156;BME280;10238;49.556;10.956;2023-04-21T12:24:15;97702.59;;;28.87;51.75
20156;BME280;10238;49.556;10.956;2023-04-21T12:27:04;97703.28;;;28.74;53.46
20156;BME280;10238;49.556;10.956;2023-04-21T12:29:53;97712.53;;;27.91;41.81
20156;BME280;10238;49.556;10.956;2023-04-21T12:32:40;97706.53;;;27.84;44.57
20156;BME280;10238;49.556;10.956;2023-04-21T12:35:28;97704.50;;;26.20;42.55
20156;BME280;10238;49.556;10.956;2023-04-21T12:38:19;97698.50;;;27.44;54.31
20156;BME280;10238;49.556;10.956;2023-04-21T12:41:06;97692.94;;;27.74;52.13
20156;BME280;10238;49.556;10.956;2023-04-21T12:43:54;97694.50;;;26.76;43.29
20156;BME280;10238;49.556;10.956;2023-04-21T12:46:41;97698.41;;;27.69;48.21
20156;BME280;10238;49.556;10.956;2023-04-21T12:49:29;97693.38;;;28.01;50.84
20156;BME280;10238;49.556;10.956;2023-04-21T12:52:19;97695.53;;;27.99;44.34
20156;BME280;10238;49.556;10.956;2023-04-21T12:55:08;97690.63;;;28.01;45.38
20156;BME280;10238;49.556;10.956;2023-04-21T12:57:58;97677.69;;;28.60;46.14
20156;BME280;10238;49.556;10.956;2023-04-21T13:00:46;97676.63;;;28.12;43.12
20156;BME280;10238;49.556;10.956;2023-04-21T13:03:34;97686.50;;;27.35;47.66
20156;BME280;10238;49.556;10.956;2023-04-21T13:06:22;97690.38;;;27.23;43.85
20156;BME280;10238;49.556;10.956;2023-04-21T13:09:09;97679.97;;;28.43;51.51
20156;BME280;10238;49.556;10.956;2023-04-21T13:11:59;97676.53;;;28.22;43.87
20156;BME280;10238;49.556;10.956;2023-04-21T13:14:47;97688.44;;;27.34;43.45
20156;BME280;10238;49.556;10.956;2023-04-21T13:17:35;97688.97;;;26.11;42.31
20156;BME280;10238;49.556;10.956;2023-04-21T13:20:23;97685.44;;;27.20;44.57
20156;BME280;10238;49.556;10.956;2023-04-21T13:23:10;97678.13;;;27.80;44.68
20156;BME280;10238;49.556;10.956;2023-04-21T13:25:59;97676.09;;;27.52;43.64
20156;BME280;10238;49.556;10.956;2023-04-21T13:28:48;97686.03;;;27.81;40.53
20156;BME280;10238;49.556;10.956;2023-04-21T13:31:36;97678.03;;;28.05;47.53
20156;BME280;10238;49.556;10.956;2023-04-21T13:34:24;97670.53;;;28.64;42.77
20156;BME280;10238;49.556;10.956;2023-04-21T13:37:12;97668.63;;;28.93;38.11
20156;BME280;10238;49.556;10.956;2023-04-21T13:40:01;97667.34;;;28.52;43.34
20156;BME280;10238;49.556;10.956;2023-04-21T13:42:50;97658.81;;;28.87;47.63
20156;BME280;10238;49.556;10.956;2023-04-21T13:45:39;97657.56;;;29.08;45.70
20156;BME280;10238;49.556;10.956;2023-04-21T13:48:27;97664.53;;;28.23;44.93
20156;BME280;10238;49.556;10.956;2023-04-21T13:51:15;97663.06;;;28.36;45.12
20156;BME280;10238;49.556;10.956;2023-04-21T13:54:02;97660.16;;;28.61;47.80
20156;BME280;10238;49.556;10.956;2023-04-21T13:56:50;97659.41;;;28.12;38.44
20156;BME280;10238;49.556;10.956;2023-04-21T13:59:39;97665.13;;;27.57;47.68
20156;BME280;10238;49.556;10.956;2023-04-21T14:02:28;97663.06;;;26.03;40.60
20156;BME280;10238;49.556;10.956;2023-04-21T14:05:16;97655.06;;;25.77;43.62
20156;BME280;10238;49.556;10.956;2023-04-21T14:08:08;97654.16;;;25.46;45.84
20156;BME280;10238;49.556;10.956;2023-04-21T14:10:56;97647.72;;;24.69;41.71
20156;BME280;10238;49.556;10.956;2023-04-21T14:13:44;97649.19;;;24.50;42.29
20156;BME280;10238;49.556;10.956;2023-04-21T14:16:50;97646.53;;;23.97;44.19
20156;BME280;10238;49.556;10.956;2023-04-21T14:19:39;97643.69;;;23.87;45.71
20156;BME280;10238;49.556;10.956;2023-04-21T14:22:27;97644.41;;;23.56;44.61
20156;BME280;10238;49.556;10.956;2023-04-21T14:25:15;97637.09;;;24.04;46.76
20156;BME280;10238;49.556;10.956;2023-04-21T14:28:03;97626.91;;;24.53;43.93
20156;BME280;10238;49.556;10.956;2023-04-21T14:30:52;97614.47;;;25.65;49.72
20156;BME280;10238;49.556;10.956;2023-04-21T14:33:40;97622.69;;;25.80;46.93
20156;BME280;10238;49.556;10.956;2023-04-21T14:36:29;97625.88;;;24.95;42.33
20156;BME280;10238;49.556;10.956;2023-04-21T14:39:17;97614.84;;;26.09;52.58
20156;BME280;10238;49.556;10.956;2023-04-21T14:42:04;97603.16;;;26.08;43.24